sensor_id;sensor_type;location;lat;lon;timestamp;pressure;altitude;pressure_sealevel;temperature;humidity
36834;BME280;48003;52.084;5.224;2023-02-28T00:01:10;103265.00000000001;;;5.43;66.3
36834;BME280;48003;52.084;5.224;2023-02-28T00:02:47;103263.00000000001;;;5.45;66.27
36834;BME280;48003;52.084;5.224;2023-02-28T00:04:24;103256.0;;;5.45;66.25
36834;BME280;48003;52.084;5.224;2023-02-28T00:07:37;103256.0;;;5.5;66.37
36834;BME280;48003;52.084;5.224;2023-02-28T00:09:14;103254.0;;;5.52;66.39
36834;BME280;48003;52.084;5.224;2023-02-28T00:10:50;103247.0;;;5.56;66.37
36834;BME280;48003;52.084;5.224;2023-02-28T00:12:27;103252.0;;;5.57;66.48
36834;BME280;48003;52.084;5.224;2023-02-28T00:15:39;103252.0;;;5.62;66.41
36834;BME280;48003;52.084;5.224;2023-02-28T00:17:15;103255.0;;;5.66;66.45
36834;BME280;48003;52.084;5.224;2023-02-28T00:18:51;103256.0;;;5.71;66.44
36834;BME280;48003;52.084;5.224;2023-02-28T00:22:03;103263.00000000001;;;5.68;66.67
36834;BME280;48003;52.084;5.224;2023-02-28T00:23:39;103263.00000000001;;;5.64;66.66
36834;BME280;48003;52.084;5.224;2023-02-28T00:25:18;103261.99999999999;;;5.63;66.78
36834;BME280;48003;52.084;5.224;2023-02-28T00:28:32;103267.0;;;5.66;66.94
36834;BME280;48003;52.084;5.224;2023-02-28T00:30:10;103267.0;;;5.68;66.91
36834;BME280;48003;52.084;5.224;2023-02-28T00:31:51;103265.00000000001;;;5.7;66.98
36834;BME280;48003;52.084;5.224;2023-02-28T00:33:27;103258.99999999999;;;5.71;67.08
36834;BME280;48003;52.084;5.224;2023-02-28T00:36:42;103261.99999999999;;;5.77;66.98
36834;BME280;48003;52.084;5.224;2023-02-28T00:38:19;103255.0;;;5.81;67.02
36834;BME280;48003;52.084;5.224;2023-02-28T00:39:56;103256.0;;;5.85;67.02
36834;BME280;48003;52.084;5.224;2023-02-28T00:43:08;103255.0;;;5.9;66.97
36834;BME280;48003;52.084;5.224;2023-02-28T00:44:44;103255.0;;;5.93;66.81
36834;BME280;48003;52.084;5.224;2023-02-28T00:46:20;103258.0;;;5.93;66.89
36834;BME280;48003;52.084;5.224;2023-02-28T00:49:33;103256.0;;;5.91;67.02
36834;BME280;48003;52.084;5.224;2023-02-28T00:51:09;103252.0;;;5.91;67.0
36834;BME280;48003;52.084;5.224;2023-02-28T00:52:45;103250.0;;;5.91;66.94
36834;BME280;48003;52.084;5.224;2023-02-28T00:54:23;103250.0;;;5.93;67.06
36834;BME280;48003;52.084;5.224;2023-02-28T00:57:36;103242.0;;;5.97;67.0
36834;BME280;48003;52.084;5.224;2023-02-28T00:59:12;103245.0;;;6.05;66.92
36834;BME280;48003;52.084;5.224;2023-02-28T01:00:49;103246.0;;;6.08;66.83
36834;BME280;48003;52.084;5.224;2023-02-28T01:04:02;103252.0;;;6.08;66.91
36834;BME280;48003;52.084;5.224;2023-02-28T01:05:38;103246.0;;;6.08;66.94
36834;BME280;48003;52.084;5.224;2023-02-28T01:07:14;103248.0;;;6.11;67.08
36834;BME280;48003;52.084;5.224;2023-02-28T01:10:28;103245.0;;;6.14;66.97
36834;BME280;48003;52.084;5.224;2023-02-28T01:12:04;103250.0;;;6.19;66.83
36834;BME280;48003;52.084;5.224;2023-02-28T01:13:40;103257.0;;;6.23;66.81
36834;BME280;48003;52.084;5.224;2023-02-28T01:15:17;103255.0;;;6.23;66.88
36834;BME280;48003;52.084;5.224;2023-02-28T01:18:29;103251.0;;;6.26;66.97
36834;BME280;48003;52.084;5.224;2023-02-28T01:20:07;103249.0;;;6.24;66.98
36834;BME280;48003;52.084;5.224;2023-02-28T01:21:42;103251.0;;;6.24;67.08
36834;BME280;48003;52.084;5.224;2023-02-28T01:24:56;103250.0;;;6.24;67.06
36834;BME280;48003;52.084;5.224;2023-02-28T01:26:32;103246.0;;;6.24;67.09
36834;BME280;48003;52.084;5.224;2023-02-28T01:28:08;103254.0;;;6.22;67.22
36834;BME280;48003;52.084;5.224;2023-02-28T01:31:21;103251.0;;;6.21;67.35
36834;BME280;48003;52.084;5.224;2023-02-28T01:32:59;103252.0;;;6.23;67.36
36834;BME280;48003;52.084;5.224;2023-02-28T01:34:36;103249.0;;;6.27;67.31
36834;BME280;48003;52.084;5.224;2023-02-28T01:36:13;103246.0;;;6.27;67.37
36834;BME280;48003;52.084;5.224;2023-02-28T01:39:27;103242.0;;;6.24;67.37
36834;BME280;48003;52.084;5.224;2023-02-28T01:41:04;103243.0;;;6.22;67.47
36834;BME280;48003;52.084;5.224;2023-02-28T01:42:40;103243.0;;;6.21;67.56
36834;BME280;48003;52.084;5.224;2023-02-28T01:47:02;103242.0;;;6.24;67.58
36834;BME280;48003;52.084;5.224;2023-02-28T01:48:41;103242.0;;;6.23;67.66
36834;BME280;48003;52.084;5.224;2023-02-28T01:51:58;103239.00000000001;;;6.24;67.61
36834;BME280;48003;52.084;5.224;2023-02-28T01:53:37;103238.00000000001;;;6.25;67.6
36834;BME280;48003;52.084;5.224;2023-02-28T01:55:18;103233.0;;;6.28;67.66
36834;BME280;48003;52.084;5.224;2023-02-28T01:58:41;103233.99999999999;;;6.28;67.67
36834;BME280;48003;52.084;5.224;2023-02-28T02:00:20;103231.0;;;6.32;67.59
36834;BME280;48003;52.084;5.224;2023-02-28T02:01:59;103233.99999999999;;;6.41;67.05
36834;BME280;48003;52.084;5.224;2023-02-28T02:03:36;103226.0;;;6.42;66.91
36834;BME280;48003;52.084;5.224;2023-02-28T02:06:53;103222.0;;;6.41;66.85
36834;BME280;48003;52.084;5.224;2023-02-28T02:08:31;103219.0;;;6.44;66.88
36834;BME280;48003;52.084;5.224;2023-02-28T02:10:12;103216.00000000001;;;6.46;66.69
36834;BME280;48003;52.084;5.224;2023-02-28T02:11:51;103214.00000000001;;;6.43;66.73
36834;BME280;48003;52.084;5.224;2023-02-28T02:15:32;103208.99999999999;;;6.47;66.64
36834;BME280;48003;52.084;5.224;2023-02-28T02:17:18;103211.99999999999;;;6.43;66.61
36834;BME280;48003;52.084;5.224;2023-02-28T02:19:14;103206.0;;;6.43;66.75
36834;BME280;48003;52.084;5.224;2023-02-28T02:22:47;103203.0;;;6.44;66.78
36834;BME280;48003;52.084;5.224;2023-02-28T02:25:14;103202.0;;;6.42;67.0
36834;BME280;48003;52.084;5.224;2023-02-28T02:28:06;103206.0;;;6.39;67.16
36834;BME280;48003;52.084;5.224;2023-02-28T02:29:57;103208.0;;;6.36;67.27
36834;BME280;48003;52.084;5.224;2023-02-28T02:32:18;103206.0;;;6.31;67.55
36834;BME280;48003;52.084;5.224;2023-02-28T02:35:29;103218.0;;;6.36;67.66
36834;BME280;48003;52.084;5.224;2023-02-28T02:37:17;103217.0;;;6.35;67.67
36834;BME280;48003;52.084;5.224;2023-02-28T02:39:02;103220.0;;;6.43;67.53
36834;BME280;48003;52.084;5.224;2023-02-28T02:42:35;103221.0;;;6.44;67.38
36834;BME280;48003;52.084;5.224;2023-02-28T02:44:20;103220.0;;;6.48;67.33
36834;BME280;48003;52.084;5.224;2023-02-28T02:46:01;103221.0;;;6.46;67.3
36834;BME280;48003;52.084;5.224;2023-02-28T02:47:41;103219.0;;;6.46;67.38
36834;BME280;48003;52.084;5.224;2023-02-28T02:49:22;103219.0;;;6.43;67.55
36834;BME280;48003;52.084;5.224;2023-02-28T02:52:44;103221.0;;;6.45;67.63
36834;BME280;48003;52.084;5.224;2023-02-28T02:54:35;103221.0;;;6.42;67.64
36834;BME280;48003;52.084;5.224;2023-02-28T02:56:13;103218.0;;;6.43;67.72
36834;BME280;48003;52.084;5.224;2023-02-28T02:57:53;103217.0;;;6.43;67.81
36834;BME280;48003;52.084;5.224;2023-02-28T03:01:16;103217.0;;;6.44;67.97
36834;BME280;48003;52.084;5.224;2023-02-28T03:02:55;103222.0;;;6.44;68.1
36834;BME280;48003;52.084;5.224;2023-02-28T03:04:36;103221.0;;;6.44;68.16
36834;BME280;48003;52.084;5.224;2023-02-28T03:06:18;103222.0;;;6.45;68.2
36834;BME280;48003;52.084;5.224;2023-02-28T03:09:32;103222.0;;;6.46;68.12
36834;BME280;48003;52.084;5.224;2023-02-28T03:11:13;103225.0;;;6.44;68.24
36834;BME280;48003;52.084;5.224;2023-02-28T03:12:56;103223.0;;;6.45;68.24
36834;BME280;48003;52.084;5.224;2023-02-28T03:14:48;103222.0;;;6.45;68.41
36834;BME280;48003;52.084;5.224;2023-02-28T03:16:35;103224.0;;;6.47;68.47
36834;BME280;48003;52.084;5.224;2023-02-28T03:20:09;103217.0;;;6.49;68.69
36834;BME280;48003;52.084;5.224;2023-02-28T03:22:01;103217.0;;;6.5;68.7
36834;BME280;48003;52.084;5.224;2023-02-28T03:23:45;103218.0;;;6.52;68.86
36834;BME280;48003;52.084;5.224;2023-02-28T03:25:31;103217.0;;;6.5;68.84
36834;BME280;48003;52.084;5.224;2023-02-28T03:27:16;103221.0;;;6.51;68.8
36834;BME280;48003;52.084;5.224;2023-02-28T03:30:47;103221.0;;;6.48;68.88
36834;BME280;48003;52.084;5.224;2023-02-28T03:32:28;103221.0;;;6.47;68.94
36834;BME280;48003;52.084;5.224;2023-02-28T03:34:12;103221.0;;;6.46;69.11
36834;BME280;48003;52.084;5.224;2023-02-28T03:35:56;103222.0;;;6.44;69.16
36834;BME280;48003;52.084;5.224;2023-02-28T03:37:38;103222.0;;;6.47;69.17
36834;BME280;48003;52.084;5.224;2023-02-28T03:41:01;103221.0;;;6.48;69.2
36834;BME280;48003;52.084;5.224;2023-02-28T03:42:44;103221.0;;;6.47;69.3
36834;BME280;48003;52.084;5.224;2023-02-28T03:44:25;103223.0;;;6.5;69.3
36834;BME280;48003;52.084;5.224;2023-02-28T03:46:09;103218.0;;;6.47;69.39
36834;BME280;48003;52.084;5.224;2023-02-28T03:49:31;103220.0;;;6.47;69.36
36834;BME280;48003;52.084;5.224;2023-02-28T03:51:14;103224.0;;;6.45;69.34
36834;BME280;48003;52.084;5.224;2023-02-28T03:52:56;103228.0;;;6.45;69.38
36834;BME280;48003;52.084;5.224;2023-02-28T03:54:41;103224.0;;;6.47;69.41
36834;BME280;48003;52.084;5.224;2023-02-28T03:56:24;103227.0;;;6.47;69.52
36834;BME280;48003;52.084;5.224;2023-02-28T03:59:56;103228.0;;;6.49;69.39
36834;BME280;48003;52.084;5.224;2023-02-28T04:01:38;103227.0;;;6.46;69.41
36834;BME280;48003;52.084;5.224;2023-02-28T04:03:16;103228.0;;;6.45;69.53
36834;BME280;48003;52.084;5.224;2023-02-28T04:04:52;103230.0;;;6.43;69.59
36834;BME280;48003;52.084;5.224;2023-02-28T04:08:08;103233.0;;;6.46;69.62
36834;BME280;48003;52.084;5.224;2023-02-28T04:09:44;103233.99999999999;;;6.45;69.52
36834;BME280;48003;52.084;5.224;2023-02-28T04:11:23;103236.99999999999;;;6.46;69.61
36834;BME280;48003;52.084;5.224;2023-02-28T04:13:02;103238.00000000001;;;6.46;69.67
36834;BME280;48003;52.084;5.224;2023-02-28T04:16:15;103236.99999999999;;;6.44;69.75
36834;BME280;48003;52.084;5.224;2023-02-28T04:17:52;103232.0;;;6.48;69.13
36834;BME280;48003;52.084;5.224;2023-02-28T04:19:28;103236.99999999999;;;6.46;68.72
36834;BME280;48003;52.084;5.224;2023-02-28T04:22:41;103233.99999999999;;;6.48;68.28
36834;BME280;48003;52.084;5.224;2023-02-28T04:24:19;103236.99999999999;;;6.52;68.03
36834;BME280;48003;52.084;5.224;2023-02-28T04:25:57;103239.00000000001;;;6.57;67.55
36834;BME280;48003;52.084;5.224;2023-02-28T04:29:11;103232.0;;;6.53;67.25
36834;BME280;48003;52.084;5.224;2023-02-28T04:30:54;103236.99999999999;;;6.5;66.67
36834;BME280;48003;52.084;5.224;2023-02-28T04:32:31;103240.00000000001;;;6.51;66.19
36834;BME280;48003;52.084;5.224;2023-02-28T04:34:07;103242.0;;;6.57;66.11
36834;BME280;48003;52.084;5.224;2023-02-28T04:37:19;103241.00000000001;;;6.51;64.33
36834;BME280;48003;52.084;5.224;2023-02-28T04:38:56;103241.00000000001;;;6.55;63.21
36834;BME280;48003;52.084;5.224;2023-02-28T04:40:33;103242.0;;;6.64;63.3
36834;BME280;48003;52.084;5.224;2023-02-28T04:43:46;103243.0;;;6.59;63.72
36834;BME280;48003;52.084;5.224;2023-02-28T04:45:22;103244.0;;;6.59;63.65
36834;BME280;48003;52.084;5.224;2023-02-28T04:46:58;103253.0;;;6.56;63.02
36834;BME280;48003;52.084;5.224;2023-02-28T04:48:36;103250.0;;;6.53;62.47
36834;BME280;48003;52.084;5.224;2023-02-28T04:51:50;103250.0;;;6.53;62.39
36834;BME280;48003;52.084;5.224;2023-02-28T04:53:27;103249.0;;;6.5;62.73
36834;BME280;48003;52.084;5.224;2023-02-28T04:55:05;103247.0;;;6.51;62.26
36834;BME280;48003;52.084;5.224;2023-02-28T04:58:18;103244.0;;;6.55;62.2
36834;BME280;48003;52.084;5.224;2023-02-28T04:59:54;103249.0;;;6.45;61.82
36834;BME280;48003;52.084;5.224;2023-02-28T05:01:32;103249.0;;;6.37;61.84
36834;BME280;48003;52.084;5.224;2023-02-28T05:04:45;103247.0;;;6.33;61.56
36834;BME280;48003;52.084;5.224;2023-02-28T05:06:23;103248.0;;;6.36;61.51
36834;BME280;48003;52.084;5.224;2023-02-28T05:07:59;103251.0;;;6.32;61.49
36834;BME280;48003;52.084;5.224;2023-02-28T05:09:35;103244.0;;;6.32;61.48
36834;BME280;48003;52.084;5.224;2023-02-28T05:12:52;103246.0;;;6.33;61.25
36834;BME280;48003;52.084;5.224;2023-02-28T05:14:29;103246.0;;;6.35;60.81
36834;BME280;48003;52.084;5.224;2023-02-28T05:16:05;103239.00000000001;;;6.29;60.87
36834;BME280;48003;52.084;5.224;2023-02-28T05:19:19;103245.0;;;6.32;61.01
36834;BME280;48003;52.084;5.224;2023-02-28T05:20:55;103243.0;;;6.34;60.18
36834;BME280;48003;52.084;5.224;2023-02-28T05:22:31;103242.0;;;6.58;59.62
36834;BME280;48003;52.084;5.224;2023-02-28T05:24:10;103246.0;;;6.37;60.05
36834;BME280;48003;52.084;5.224;2023-02-28T05:27:24;103247.0;;;6.63;59.43
36834;BME280;48003;52.084;5.224;2023-02-28T05:30:36;103258.99999999999;;;6.41;60.35
36834;BME280;48003;52.084;5.224;2023-02-28T05:33:50;103258.99999999999;;;6.45;60.6
36834;BME280;48003;52.084;5.224;2023-02-28T05:35:26;103266.00000000001;;;6.39;61.49
36834;BME280;48003;52.084;5.224;2023-02-28T05:37:03;103263.00000000001;;;6.14;62.73
36834;BME280;48003;52.084;5.224;2023-02-28T05:40:15;103259.99999999999;;;6.26;63.04
36834;BME280;48003;52.084;5.224;2023-02-28T05:41:52;103255.0;;;6.28;63.59
36834;BME280;48003;52.084;5.224;2023-02-28T05:43:28;103261.99999999999;;;6.19;64.33
36834;BME280;48003;52.084;5.224;2023-02-28T05:45:05;103265.00000000001;;;6.13;65.03
36834;BME280;48003;52.084;5.224;2023-02-28T05:48:17;103254.0;;;6.01;65.47
36834;BME280;48003;52.084;5.224;2023-02-28T05:49:54;103256.0;;;6.16;65.94
36834;BME280;48003;52.084;5.224;2023-02-28T05:51:30;103263.00000000001;;;6.01;66.64
36834;BME280;48003;52.084;5.224;2023-02-28T05:54:42;103263.00000000001;;;6.06;66.86
36834;BME280;48003;52.084;5.224;2023-02-28T05:56:18;103259.99999999999;;;5.97;67.27
36834;BME280;48003;52.084;5.224;2023-02-28T05:57:54;103254.0;;;5.93;67.8
36834;BME280;48003;52.084;5.224;2023-02-28T06:01:32;103259.99999999999;;;5.86;68.05
36834;BME280;48003;52.084;5.224;2023-02-28T06:03:09;103263.00000000001;;;5.77;68.41
36834;BME280;48003;52.084;5.224;2023-02-28T06:04:45;103258.99999999999;;;5.81;68.69
36834;BME280;48003;52.084;5.224;2023-02-28T06:06:22;103266.00000000001;;;5.89;68.88
36834;BME280;48003;52.084;5.224;2023-02-28T06:09:34;103267.0;;;5.68;69.47
36834;BME280;48003;52.084;5.224;2023-02-28T06:11:12;103267.0;;;5.54;70.22
36834;BME280;48003;52.084;5.224;2023-02-28T06:12:48;103271.0;;;5.53;70.58
36834;BME280;48003;52.084;5.224;2023-02-28T06:14:25;103275.0;;;5.49;70.86
36834;BME280;48003;52.084;5.224;2023-02-28T06:17:37;103277.0;;;5.44;71.06
36834;BME280;48003;52.084;5.224;2023-02-28T06:19:13;103267.0;;;5.4;71.49
36834;BME280;48003;52.084;5.224;2023-02-28T06:20:52;103270.0;;;5.37;71.8
36834;BME280;48003;52.084;5.224;2023-02-28T06:24:05;103264.00000000001;;;5.3;72.12
36834;BME280;48003;52.084;5.224;2023-02-28T06:25:44;103267.0;;;5.25;72.42
36834;BME280;48003;52.084;5.224;2023-02-28T06:27:21;103265.00000000001;;;5.2;72.78
36834;BME280;48003;52.084;5.224;2023-02-28T06:28:57;103270.0;;;5.21;73.02
36834;BME280;48003;52.084;5.224;2023-02-28T06:32:09;103266.00000000001;;;5.2;73.19
36834;BME280;48003;52.084;5.224;2023-02-28T06:33:46;103264.00000000001;;;5.25;73.24
36834;BME280;48003;52.084;5.224;2023-02-28T06:35:22;103258.99999999999;;;5.24;73.3
36834;BME280;48003;52.084;5.224;2023-02-28T06:38:36;103267.0;;;5.25;73.08
36834;BME280;48003;52.084;5.224;2023-02-28T06:40:14;103269.0;;;5.25;73.11
36834;BME280;48003;52.084;5.224;2023-02-28T06:41:51;103268.0;;;5.2;73.34
36834;BME280;48003;52.084;5.224;2023-02-28T06:45:06;103270.0;;;5.2;73.59
36834;BME280;48003;52.084;5.224;2023-02-28T06:46:44;103267.0;;;5.25;73.74
36834;BME280;48003;52.084;5.224;2023-02-28T06:49:57;103267.0;;;5.22;73.47
36834;BME280;48003;52.084;5.224;2023-02-28T06:53:09;103276.0;;;5.21;73.42
36834;BME280;48003;52.084;5.224;2023-02-28T06:54:45;103278.0;;;5.25;73.41
36834;BME280;48003;52.084;5.224;2023-02-28T06:56:21;103276.0;;;5.26;73.73
36834;BME280;48003;52.084;5.224;2023-02-28T06:59:35;103273.0;;;5.3;73.97
36834;BME280;48003;52.084;5.224;2023-02-28T07:01:11;103273.0;;;5.31;73.52
36834;BME280;48003;52.084;5.224;2023-02-28T07:02:49;103269.0;;;5.31;73.45
36834;BME280;48003;52.084;5.224;2023-02-28T07:06:02;103267.0;;;5.31;73.45
36834;BME280;48003;52.084;5.224;2023-02-28T07:07:38;103268.0;;;5.31;73.33
36834;BME280;48003;52.084;5.224;2023-02-28T07:09:15;103271.0;;;5.3;73.94
36834;BME280;48003;52.084;5.224;2023-02-28T07:10:52;103270.0;;;5.3;73.8
36834;BME280;48003;52.084;5.224;2023-02-28T07:14:05;103267.0;;;5.31;74.05
36834;BME280;48003;52.084;5.224;2023-02-28T07:15:41;103271.0;;;5.35;73.86
36834;BME280;48003;52.084;5.224;2023-02-28T07:17:17;103277.0;;;5.36;73.94
36834;BME280;48003;52.084;5.224;2023-02-28T07:20:29;103281.0;;;5.39;74.09
36834;BME280;48003;52.084;5.224;2023-02-28T07:22:07;103283.0;;;5.39;74.3
36834;BME280;48003;52.084;5.224;2023-02-28T07:23:44;103282.0;;;5.43;74.23
36834;BME280;48003;52.084;5.224;2023-02-28T07:26:56;103272.0;;;5.44;74.55
36834;BME280;48003;52.084;5.224;2023-02-28T07:28:33;103276.0;;;5.48;74.0
36834;BME280;48003;52.084;5.224;2023-02-28T07:30:10;103269.0;;;5.52;74.13
36834;BME280;48003;52.084;5.224;2023-02-28T07:31:46;103273.0;;;5.47;74.38
36834;BME280;48003;52.084;5.224;2023-02-28T07:34:59;103276.0;;;5.51;74.27
36834;BME280;48003;52.084;5.224;2023-02-28T07:36:35;103277.0;;;5.54;74.37
36834;BME280;48003;52.084;5.224;2023-02-28T07:38:11;103281.0;;;5.57;74.28
36834;BME280;48003;52.084;5.224;2023-02-28T07:41:23;103275.0;;;5.56;74.08
36834;BME280;48003;52.084;5.224;2023-02-28T07:43:00;103276.0;;;5.58;74.44
36834;BME280;48003;52.084;5.224;2023-02-28T07:44:37;103272.0;;;5.61;74.48
36834;BME280;48003;52.084;5.224;2023-02-28T07:47:52;103280.0;;;5.63;74.41
36834;BME280;48003;52.084;5.224;2023-02-28T07:49:29;103281.0;;;5.62;74.14
36834;BME280;48003;52.084;5.224;2023-02-28T07:51:05;103278.0;;;5.59;74.41
36834;BME280;48003;52.084;5.224;2023-02-28T07:52:41;103280.0;;;5.58;74.61
36834;BME280;48003;52.084;5.224;2023-02-28T07:55:55;103283.0;;;5.61;74.5
36834;BME280;48003;52.084;5.224;2023-02-28T07:57:31;103290.00000000001;;;5.65;74.5
36834;BME280;48003;52.084;5.224;2023-02-28T07:59:07;103291.00000000001;;;5.69;74.59
36834;BME280;48003;52.084;5.224;2023-02-28T08:02:20;103279.0;;;5.67;74.47
36834;BME280;48003;52.084;5.224;2023-02-28T08:03:56;103289.00000000001;;;5.72;74.58
36834;BME280;48003;52.084;5.224;2023-02-28T08:05:32;103299.0;;;5.77;74.44
36834;BME280;48003;52.084;5.224;2023-02-28T08:08:45;103301.0;;;5.74;74.49
36834;BME280;48003;52.084;5.224;2023-02-28T08:10:20;103284.99999999999;;;5.74;74.69
36834;BME280;48003;52.084;5.224;2023-02-28T08:11:57;103286.99999999999;;;5.73;74.8
36834;BME280;48003;52.084;5.224;2023-02-28T08:13:33;103289.00000000001;;;5.77;74.86
36834;BME280;48003;52.084;5.224;2023-02-28T08:16:46;103298.0;;;5.8;74.75
36834;BME280;48003;52.084;5.224;2023-02-28T08:18:23;103299.0;;;5.84;74.52
36834;BME280;48003;52.084;5.224;2023-02-28T08:20:00;103304.0;;;5.84;74.75
36834;BME280;48003;52.084;5.224;2023-02-28T08:23:12;103300.0;;;5.9;74.22
36834;BME280;48003;52.084;5.224;2023-02-28T08:24:49;103308.99999999999;;;5.91;73.99
36834;BME280;48003;52.084;5.224;2023-02-28T08:26:26;103297.0;;;5.96;73.75
36834;BME280;48003;52.084;5.224;2023-02-28T08:29:38;103311.99999999999;;;5.95;73.55
36834;BME280;48003;52.084;5.224;2023-02-28T08:31:16;103307.0;;;6.0;73.33
36834;BME280;48003;52.084;5.224;2023-02-28T08:32:53;103306.0;;;6.06;72.89
36834;BME280;48003;52.084;5.224;2023-02-28T08:34:29;103308.0;;;6.09;72.5
36834;BME280;48003;52.084;5.224;2023-02-28T08:37:43;103294.0;;;6.13;71.86
36834;BME280;48003;52.084;5.224;2023-02-28T08:39:20;103298.0;;;6.12;71.33
36834;BME280;48003;52.084;5.224;2023-02-28T08:40:57;103297.0;;;6.12;71.05
36834;BME280;48003;52.084;5.224;2023-02-28T08:44:12;103297.0;;;6.22;71.23
36834;BME280;48003;52.084;5.224;2023-02-28T08:45:51;103298.0;;;6.23;70.36
36834;BME280;48003;52.084;5.224;2023-02-28T08:47:27;103302.0;;;6.2;69.83
36834;BME280;48003;52.084;5.224;2023-02-28T08:50:39;103298.0;;;6.18;70.22
36834;BME280;48003;52.084;5.224;2023-02-28T08:52:16;103297.0;;;6.19;70.05
36834;BME280;48003;52.084;5.224;2023-02-28T08:53:53;103300.0;;;6.18;69.06
36834;BME280;48003;52.084;5.224;2023-02-28T08:55:30;103299.0;;;6.23;68.97
36834;BME280;48003;52.084;5.224;2023-02-28T08:58:43;103300.0;;;6.22;69.14
36834;BME280;48003;52.084;5.224;2023-02-28T09:00:21;103298.0;;;6.24;69.16
36834;BME280;48003;52.084;5.224;2023-02-28T09:01:57;103292.0;;;6.23;69.0
36834;BME280;48003;52.084;5.224;2023-02-28T09:05:10;103290.00000000001;;;6.25;68.3
36834;BME280;48003;52.084;5.224;2023-02-28T09:06:46;103290.00000000001;;;6.36;67.58
36834;BME280;48003;52.084;5.224;2023-02-28T09:08:23;103290.00000000001;;;6.41;66.85
36834;BME280;48003;52.084;5.224;2023-02-28T09:11:36;103297.0;;;6.47;66.38
36834;BME280;48003;52.084;5.224;2023-02-28T09:13:12;103301.0;;;6.46;66.31
36834;BME280;48003;52.084;5.224;2023-02-28T09:14:49;103301.0;;;6.61;64.91
36834;BME280;48003;52.084;5.224;2023-02-28T09:16:25;103301.0;;;6.64;64.22
36834;BME280;48003;52.084;5.224;2023-02-28T09:19:37;103308.99999999999;;;6.63;64.05
36834;BME280;48003;52.084;5.224;2023-02-28T09:21:16;103298.0;;;6.57;64.12
36834;BME280;48003;52.084;5.224;2023-02-28T09:22:52;103297.0;;;6.68;63.48
36834;BME280;48003;52.084;5.224;2023-02-28T09:26:05;103292.0;;;6.76;61.79
36834;BME280;48003;52.084;5.224;2023-02-28T09:27:42;103299.0;;;6.75;60.22
36834;BME280;48003;52.084;5.224;2023-02-28T09:29:18;103301.0;;;6.78;60.08
36834;BME280;48003;52.084;5.224;2023-02-28T09:32:31;103298.0;;;6.76;60.61
36834;BME280;48003;52.084;5.224;2023-02-28T09:34:07;103301.0;;;6.83;61.27
36834;BME280;48003;52.084;5.224;2023-02-28T09:35:43;103296.0;;;7.05;59.28
36834;BME280;48003;52.084;5.224;2023-02-28T09:37:20;103297.0;;;7.19;58.19
36834;BME280;48003;52.084;5.224;2023-02-28T09:40:35;103298.0;;;7.21;56.55
36834;BME280;48003;52.084;5.224;2023-02-28T09:42:21;103295.0;;;7.26;56.25
36834;BME280;48003;52.084;5.224;2023-02-28T09:44:07;103298.0;;;7.16;56.73
36834;BME280;48003;52.084;5.224;2023-02-28T09:45:52;103304.0;;;6.99;54.66
36834;BME280;48003;52.084;5.224;2023-02-28T09:49:14;103306.0;;;7.01;54.37
36834;BME280;48003;52.084;5.224;2023-02-28T09:50:55;103303.0;;;7.47;52.48
36834;BME280;48003;52.084;5.224;2023-02-28T09:52:36;103300.0;;;7.7;53.41
36834;BME280;48003;52.084;5.224;2023-02-28T09:54:15;103296.0;;;7.32;50.68
36834;BME280;48003;52.084;5.224;2023-02-28T09:57:37;103294.0;;;7.2;49.4
36834;BME280;48003;52.084;5.224;2023-02-28T09:59:25;103300.0;;;7.17;47.15
36834;BME280;48003;52.084;5.224;2023-02-28T10:01:23;103296.0;;;6.96;44.37
36834;BME280;48003;52.084;5.224;2023-02-28T10:03:21;103301.0;;;6.98;44.44
36834;BME280;48003;52.084;5.224;2023-02-28T10:05:05;103304.0;;;7.34;43.42
36834;BME280;48003;52.084;5.224;2023-02-28T10:06:46;103308.99999999999;;;7.76;45.17
36834;BME280;48003;52.084;5.224;2023-02-28T10:10:13;103308.0;;;7.51;43.41
36834;BME280;48003;52.084;5.224;2023-02-28T10:12:01;103306.0;;;7.3;41.93
36834;BME280;48003;52.084;5.224;2023-02-28T10:13:50;103302.0;;;7.71;42.62
36834;BME280;48003;52.084;5.224;2023-02-28T10:15:30;103303.0;;;7.42;41.25
36834;BME280;48003;52.084;5.224;2023-02-28T10:17:11;103300.0;;;7.56;41.11
36834;BME280;48003;52.084;5.224;2023-02-28T10:20:37;103301.0;;;7.48;41.99
36834;BME280;48003;52.084;5.224;2023-02-28T10:22:16;103299.0;;;7.61;41.11
36834;BME280;48003;52.084;5.224;2023-02-28T10:24:04;103296.0;;;7.79;41.64
36834;BME280;48003;52.084;5.224;2023-02-28T10:25:57;103289.00000000001;;;8.02;42.88
36834;BME280;48003;52.084;5.224;2023-02-28T10:27:35;103288.00000000001;;;8.1;41.49
36834;BME280;48003;52.084;5.224;2023-02-28T10:30:49;103284.99999999999;;;8.03;41.68
36834;BME280;48003;52.084;5.224;2023-02-28T10:32:29;103276.0;;;8.14;41.67
36834;BME280;48003;52.084;5.224;2023-02-28T10:34:07;103279.0;;;8.3;42.26
36834;BME280;48003;52.084;5.224;2023-02-28T10:37:25;103275.0;;;8.26;42.11
36834;BME280;48003;52.084;5.224;2023-02-28T10:39:33;103278.0;;;8.51;42.57
36834;BME280;48003;52.084;5.224;2023-02-28T10:41:13;103271.0;;;8.48;41.34
36834;BME280;48003;52.084;5.224;2023-02-28T10:42:57;103278.0;;;8.83;41.85
36834;BME280;48003;52.084;5.224;2023-02-28T10:44:34;103281.0;;;8.26;40.83
36834;BME280;48003;52.084;5.224;2023-02-28T10:47:53;103275.0;;;8.49;39.86
36834;BME280;48003;52.084;5.224;2023-02-28T10:49:30;103283.99999999999;;;8.73;40.07
36834;BME280;48003;52.084;5.224;2023-02-28T10:51:08;103279.0;;;8.63;39.92
36834;BME280;48003;52.084;5.224;2023-02-28T10:52:46;103276.0;;;8.81;39.53
36834;BME280;48003;52.084;5.224;2023-02-28T10:56:05;103272.0;;;9.06;39.67
36834;BME280;48003;52.084;5.224;2023-02-28T10:57:49;103270.0;;;9.18;40.24
36834;BME280;48003;52.084;5.224;2023-02-28T10:59:28;103267.0;;;9.09;39.67
36834;BME280;48003;52.084;5.224;2023-02-28T11:01:13;103261.99999999999;;;9.0;39.1
36834;BME280;48003;52.084;5.224;2023-02-28T11:04:36;103257.0;;;8.94;39.69
36834;BME280;48003;52.084;5.224;2023-02-28T11:06:16;103259.99999999999;;;8.85;39.1